Terminal Aerodrome Forecast
Issued by NWS Mt. Holly, NJ

Home | Current Version | Previous Version | Text Only | Print | Product List | Glossary On
Versions: 1 2 3 4 5 6 7 8 9 10 11 12 13 14
000
FTUS41 KPHI 020500
TAFACY
TAF
KACY 020530Z 0206/0306 VRB03KT 5SM -RA BR SCT020 OVC060
      TEMPO 0206/0208 4SM RA BKN020
     FM020800 04006KT 4SM -RA BR OVC010
      TEMPO 0209/0213 2SM RA BR BKN008 OVC010
     FM021400 04006KT 6SM -RA OVC020
     FM021800 08008KT P6SM BKN050
     FM030300 04003KT P6SM -RA BKN025 OVC050=

USA.gov is the U.S. government's official web portal to all federal, state and local government web resources and services.